sensor_id;sensor_type;location;lat;lon;timestamp;P1;durP1;ratioP1;P2;durP2;ratioP2
33184;SDS011;19550;42.872;25.494;2023-07-02T00:01:37;13.02;;;11.75;;
33184;SDS011;19550;42.872;25.494;2023-07-02T00:04:03;16.50;;;11.77;;
33184;SDS011;19550;42.872;25.494;2023-07-02T00:06:30;13.82;;;11.27;;
33184;SDS011;19550;42.872;25.494;2023-07-02T00:08:57;16.70;;;12.07;;
33184;SDS011;19550;42.872;25.494;2023-07-02T00:11:25;14.05;;;11.95;;
33184;SDS011;19550;42.872;25.494;2023-07-02T00:13:52;14.05;;;12.60;;
33184;SDS011;19550;42.872;25.494;2023-07-02T00:16:19;14.68;;;11.65;;
33184;SDS011;19550;42.872;25.494;2023-07-02T00:18:46;13.00;;;11.77;;
33184;SDS011;19550;42.872;25.494;2023-07-02T00:21:17;13.57;;;12.23;;
33184;SDS011;19550;42.872;25.494;2023-07-02T00:23:45;17.35;;;11.93;;
33184;SDS011;19550;42.872;25.494;2023-07-02T00:26:12;15.15;;;12.52;;
33184;SDS011;19550;42.872;25.494;2023-07-02T00:28:40;19.58;;;12.77;;
33184;SDS011;19550;42.872;25.494;2023-07-02T00:31:07;15.55;;;11.15;;
33184;SDS011;19550;42.872;25.494;2023-07-02T00:33:34;13.60;;;11.70;;
33184;SDS011;19550;42.872;25.494;2023-07-02T00:36:01;13.93;;;11.95;;
33184;SDS011;19550;42.872;25.494;2023-07-02T00:38:28;13.70;;;12.30;;
33184;SDS011;19550;42.872;25.494;2023-07-02T00:40:55;14.45;;;12.15;;
33184;SDS011;19550;42.872;25.494;2023-07-02T00:43:22;13.40;;;11.20;;
33184;SDS011;19550;42.872;25.494;2023-07-02T00:45:50;13.85;;;10.85;;
33184;SDS011;19550;42.872;25.494;2023-07-02T00:48:18;12.65;;;11.35;;
33184;SDS011;19550;42.872;25.494;2023-07-02T00:50:45;13.63;;;11.55;;
33184;SDS011;19550;42.872;25.494;2023-07-02T00:53:11;14.85;;;11.32;;
33184;SDS011;19550;42.872;25.494;2023-07-02T00:55:39;17.95;;;11.65;;
33184;SDS011;19550;42.872;25.494;2023-07-02T00:58:06;13.30;;;11.27;;
33184;SDS011;19550;42.872;25.494;2023-07-02T01:00:33;12.48;;;11.18;;
33184;SDS011;19550;42.872;25.494;2023-07-02T01:03:01;15.00;;;11.55;;
33184;SDS011;19550;42.872;25.494;2023-07-02T01:05:28;16.25;;;11.52;;
33184;SDS011;19550;42.872;25.494;2023-07-02T01:08:00;17.83;;;12.13;;
33184;SDS011;19550;42.872;25.494;2023-07-02T01:10:27;18.00;;;11.60;;
33184;SDS011;19550;42.872;25.494;2023-07-02T01:12:56;11.88;;;10.77;;
33184;SDS011;19550;42.872;25.494;2023-07-02T01:15:26;13.55;;;11.88;;
33184;SDS011;19550;42.872;25.494;2023-07-02T01:17:53;12.90;;;11.30;;
33184;SDS011;19550;42.872;25.494;2023-07-02T01:20:22;12.07;;;10.80;;
33184;SDS011;19550;42.872;25.494;2023-07-02T01:22:52;13.70;;;12.00;;
33184;SDS011;19550;42.872;25.494;2023-07-02T01:25:19;13.23;;;11.93;;
33184;SDS011;19550;42.872;25.494;2023-07-02T01:27:50;12.73;;;11.27;;
33184;SDS011;19550;42.872;25.494;2023-07-02T01:30:18;14.23;;;11.77;;
33184;SDS011;19550;42.872;25.494;2023-07-02T01:32:45;16.17;;;12.48;;
33184;SDS011;19550;42.872;25.494;2023-07-02T01:35:12;13.00;;;11.60;;
33184;SDS011;19550;42.872;25.494;2023-07-02T01:37:40;12.38;;;11.07;;
33184;SDS011;19550;42.872;25.494;2023-07-02T01:40:07;12.55;;;11.25;;
33184;SDS011;19550;42.872;25.494;2023-07-02T01:42:34;15.23;;;11.43;;
33184;SDS011;19550;42.872;25.494;2023-07-02T01:45:01;14.15;;;11.70;;
33184;SDS011;19550;42.872;25.494;2023-07-02T01:47:28;15.55;;;11.57;;
33184;SDS011;19550;42.872;25.494;2023-07-02T01:49:55;15.35;;;11.75;;
33184;SDS011;19550;42.872;25.494;2023-07-02T01:52:22;16.27;;;12.48;;
33184;SDS011;19550;42.872;25.494;2023-07-02T01:54:50;17.05;;;12.23;;
33184;SDS011;19550;42.872;25.494;2023-07-02T01:57:17;13.10;;;11.30;;
33184;SDS011;19550;42.872;25.494;2023-07-02T01:59:44;13.30;;;11.98;;
33184;SDS011;19550;42.872;25.494;2023-07-02T02:02:11;13.73;;;11.38;;
33184;SDS011;19550;42.872;25.494;2023-07-02T02:04:37;14.27;;;11.88;;
33184;SDS011;19550;42.872;25.494;2023-07-02T02:07:04;13.75;;;12.18;;
33184;SDS011;19550;42.872;25.494;2023-07-02T02:09:31;16.13;;;11.43;;
33184;SDS011;19550;42.872;25.494;2023-07-02T02:11:59;14.95;;;11.50;;
33184;SDS011;19550;42.872;25.494;2023-07-02T02:14:26;14.10;;;11.30;;
33184;SDS011;19550;42.872;25.494;2023-07-02T02:16:53;15.27;;;11.90;;
33184;SDS011;19550;42.872;25.494;2023-07-02T02:19:20;11.90;;;10.20;;
33184;SDS011;19550;42.872;25.494;2023-07-02T02:21:47;14.43;;;10.52;;
33184;SDS011;19550;42.872;25.494;2023-07-02T02:24:14;15.82;;;11.73;;
33184;SDS011;19550;42.872;25.494;2023-07-02T02:26:41;15.63;;;10.70;;
33184;SDS011;19550;42.872;25.494;2023-07-02T02:29:09;18.42;;;10.55;;
33184;SDS011;19550;42.872;25.494;2023-07-02T02:31:36;13.80;;;10.48;;
33184;SDS011;19550;42.872;25.494;2023-07-02T02:34:03;12.35;;;10.52;;
33184;SDS011;19550;42.872;25.494;2023-07-02T02:36:30;13.35;;;11.10;;
33184;SDS011;19550;42.872;25.494;2023-07-02T02:38:57;12.07;;;10.30;;
33184;SDS011;19550;42.872;25.494;2023-07-02T02:41:24;13.10;;;11.63;;
33184;SDS011;19550;42.872;25.494;2023-07-02T02:43:51;13.57;;;10.60;;
33184;SDS011;19550;42.872;25.494;2023-07-02T02:46:20;12.98;;;9.98;;
33184;SDS011;19550;42.872;25.494;2023-07-02T02:48:48;17.27;;;10.60;;
33184;SDS011;19550;42.872;25.494;2023-07-02T02:51:15;13.70;;;10.95;;
33184;SDS011;19550;42.872;25.494;2023-07-02T02:53:41;13.68;;;10.70;;
33184;SDS011;19550;42.872;25.494;2023-07-02T02:56:08;15.52;;;10.77;;
33184;SDS011;19550;42.872;25.494;2023-07-02T02:58:35;12.57;;;10.32;;
33184;SDS011;19550;42.872;25.494;2023-07-02T03:01:02;12.35;;;11.05;;
33184;SDS011;19550;42.872;25.494;2023-07-02T03:03:37;13.35;;;11.45;;
33184;SDS011;19550;42.872;25.494;2023-07-02T03:06:04;14.73;;;10.95;;
33184;SDS011;19550;42.872;25.494;2023-07-02T03:08:31;13.18;;;11.02;;
33184;SDS011;19550;42.872;25.494;2023-07-02T03:10:58;12.32;;;11.13;;
33184;SDS011;19550;42.872;25.494;2023-07-02T03:13:25;15.73;;;11.73;;
33184;SDS011;19550;42.872;25.494;2023-07-02T03:15:52;12.13;;;10.80;;
33184;SDS011;19550;42.872;25.494;2023-07-02T03:18:18;11.65;;;10.45;;
33184;SDS011;19550;42.872;25.494;2023-07-02T03:20:47;16.75;;;10.70;;
33184;SDS011;19550;42.872;25.494;2023-07-02T03:23:14;13.48;;;10.70;;
33184;SDS011;19550;42.872;25.494;2023-07-02T03:25:40;12.95;;;10.45;;
33184;SDS011;19550;42.872;25.494;2023-07-02T03:28:07;14.45;;;10.65;;
33184;SDS011;19550;42.872;25.494;2023-07-02T03:30:34;12.55;;;11.27;;
33184;SDS011;19550;42.872;25.494;2023-07-02T03:33:01;12.93;;;10.93;;
33184;SDS011;19550;42.872;25.494;2023-07-02T03:35:28;14.07;;;10.63;;
33184;SDS011;19550;42.872;25.494;2023-07-02T03:37:56;15.43;;;10.60;;
33184;SDS011;19550;42.872;25.494;2023-07-02T03:40:23;12.05;;;10.70;;
33184;SDS011;19550;42.872;25.494;2023-07-02T03:42:50;11.85;;;10.65;;
33184;SDS011;19550;42.872;25.494;2023-07-02T03:45:17;13.05;;;11.57;;
33184;SDS011;19550;42.872;25.494;2023-07-02T03:47:44;17.40;;;11.35;;
33184;SDS011;19550;42.872;25.494;2023-07-02T03:50:11;13.43;;;11.25;;
33184;SDS011;19550;42.872;25.494;2023-07-02T03:52:37;16.80;;;13.48;;
33184;SDS011;19550;42.872;25.494;2023-07-02T03:55:07;20.15;;;14.18;;
33184;SDS011;19550;42.872;25.494;2023-07-02T03:57:34;28.65;;;22.13;;
33184;SDS011;19550;42.872;25.494;2023-07-02T04:00:01;17.13;;;14.45;;
33184;SDS011;19550;42.872;25.494;2023-07-02T04:02:30;13.05;;;11.73;;
33184;SDS011;19550;42.872;25.494;2023-07-02T04:04:56;13.27;;;11.00;;
33184;SDS011;19550;42.872;25.494;2023-07-02T04:07:23;18.70;;;11.52;;
33184;SDS011;19550;42.872;25.494;2023-07-02T04:09:50;16.95;;;11.75;;
33184;SDS011;19550;42.872;25.494;2023-07-02T04:12:18;14.50;;;11.07;;
33184;SDS011;19550;42.872;25.494;2023-07-02T04:14:45;14.93;;;11.88;;
33184;SDS011;19550;42.872;25.494;2023-07-02T04:17:12;16.75;;;12.35;;
33184;SDS011;19550;42.872;25.494;2023-07-02T04:19:39;12.48;;;10.48;;
33184;SDS011;19550;42.872;25.494;2023-07-02T04:22:06;11.18;;;9.85;;
33184;SDS011;19550;42.872;25.494;2023-07-02T04:24:32;14.48;;;10.63;;
33184;SDS011;19550;42.872;25.494;2023-07-02T04:26:59;15.80;;;9.73;;
33184;SDS011;19550;42.872;25.494;2023-07-02T04:29:27;12.27;;;10.00;;
33184;SDS011;19550;42.872;25.494;2023-07-02T04:31:54;11.43;;;9.68;;
33184;SDS011;19550;42.872;25.494;2023-07-02T04:34:21;13.80;;;9.20;;
33184;SDS011;19550;42.872;25.494;2023-07-02T04:36:48;11.60;;;9.38;;
33184;SDS011;19550;42.872;25.494;2023-07-02T04:39:14;12.32;;;10.38;;
33184;SDS011;19550;42.872;25.494;2023-07-02T04:41:41;12.00;;;10.13;;
33184;SDS011;19550;42.872;25.494;2023-07-02T04:44:08;15.98;;;10.20;;
33184;SDS011;19550;42.872;25.494;2023-07-02T04:46:37;12.82;;;10.32;;
33184;SDS011;19550;42.872;25.494;2023-07-02T04:49:04;13.70;;;10.38;;
33184;SDS011;19550;42.872;25.494;2023-07-02T04:51:30;12.77;;;9.95;;
33184;SDS011;19550;42.872;25.494;2023-07-02T04:53:57;11.50;;;10.07;;
33184;SDS011;19550;42.872;25.494;2023-07-02T04:56:24;10.35;;;9.18;;
33184;SDS011;19550;42.872;25.494;2023-07-02T04:58:51;12.73;;;9.52;;
33184;SDS011;19550;42.872;25.494;2023-07-02T05:01:18;13.38;;;9.43;;
33184;SDS011;19550;42.872;25.494;2023-07-02T05:03:46;12.32;;;9.07;;
33184;SDS011;19550;42.872;25.494;2023-07-02T05:06:13;11.82;;;9.80;;
33184;SDS011;19550;42.872;25.494;2023-07-02T05:08:40;11.90;;;9.82;;
33184;SDS011;19550;42.872;25.494;2023-07-02T05:11:07;12.40;;;8.90;;
33184;SDS011;19550;42.872;25.494;2023-07-02T05:13:34;9.70;;;8.65;;
33184;SDS011;19550;42.872;25.494;2023-07-02T05:16:01;13.88;;;8.45;;
33184;SDS011;19550;42.872;25.494;2023-07-02T05:18:27;10.65;;;9.00;;
33184;SDS011;19550;42.872;25.494;2023-07-02T05:20:56;12.25;;;9.23;;
33184;SDS011;19550;42.872;25.494;2023-07-02T05:23:22;12.60;;;9.02;;
33184;SDS011;19550;42.872;25.494;2023-07-02T05:25:49;12.77;;;8.43;;
33184;SDS011;19550;42.872;25.494;2023-07-02T05:28:16;11.38;;;8.98;;
33184;SDS011;19550;42.872;25.494;2023-07-02T05:30:43;12.02;;;9.48;;
33184;SDS011;19550;42.872;25.494;2023-07-02T05:33:10;13.38;;;9.45;;
33184;SDS011;19550;42.872;25.494;2023-07-02T05:35:36;12.98;;;8.98;;
33184;SDS011;19550;42.872;25.494;2023-07-02T05:38:04;10.27;;;8.73;;
33184;SDS011;19550;42.872;25.494;2023-07-02T05:40:31;15.38;;;9.63;;
33184;SDS011;19550;42.872;25.494;2023-07-02T05:42:58;11.57;;;8.77;;
33184;SDS011;19550;42.872;25.494;2023-07-02T05:45:25;17.38;;;8.52;;
33184;SDS011;19550;42.872;25.494;2023-07-02T05:47:52;12.43;;;9.25;;
33184;SDS011;19550;42.872;25.494;2023-07-02T05:50:19;13.00;;;8.38;;
33184;SDS011;19550;42.872;25.494;2023-07-02T05:52:46;14.20;;;9.27;;
33184;SDS011;19550;42.872;25.494;2023-07-02T05:55:14;11.70;;;8.82;;
33184;SDS011;19550;42.872;25.494;2023-07-02T05:57:41;9.85;;;8.02;;
33184;SDS011;19550;42.872;25.494;2023-07-02T06:00:08;9.68;;;7.57;;
33184;SDS011;19550;42.872;25.494;2023-07-02T06:02:35;10.32;;;7.70;;
33184;SDS011;19550;42.872;25.494;2023-07-02T06:05:02;15.38;;;7.55;;
33184;SDS011;19550;42.872;25.494;2023-07-02T06:07:30;9.10;;;7.80;;
33184;SDS011;19550;42.872;25.494;2023-07-02T06:09:56;10.63;;;8.13;;
33184;SDS011;19550;42.872;25.494;2023-07-02T06:12:25;10.00;;;7.90;;
33184;SDS011;19550;42.872;25.494;2023-07-02T06:14:51;10.65;;;7.90;;
33184;SDS011;19550;42.872;25.494;2023-07-02T06:17:18;12.23;;;8.52;;
33184;SDS011;19550;42.872;25.494;2023-07-02T06:19:45;13.35;;;8.52;;
33184;SDS011;19550;42.872;25.494;2023-07-02T06:22:12;9.98;;;8.63;;
33184;SDS011;19550;42.872;25.494;2023-07-02T06:24:39;14.45;;;8.75;;
33184;SDS011;19550;42.872;25.494;2023-07-02T06:27:06;9.88;;;8.88;;
33184;SDS011;19550;42.872;25.494;2023-07-02T06:29:34;13.10;;;8.75;;
33184;SDS011;19550;42.872;25.494;2023-07-02T06:32:01;11.90;;;9.32;;
33184;SDS011;19550;42.872;25.494;2023-07-02T06:34:28;10.75;;;8.93;;
33184;SDS011;19550;42.872;25.494;2023-07-02T06:36:55;9.77;;;8.38;;
33184;SDS011;19550;42.872;25.494;2023-07-02T06:39:21;9.90;;;8.70;;
33184;SDS011;19550;42.872;25.494;2023-07-02T06:41:48;9.88;;;8.88;;
33184;SDS011;19550;42.872;25.494;2023-07-02T06:44:15;10.27;;;8.40;;
33184;SDS011;19550;42.872;25.494;2023-07-02T06:46:44;13.80;;;9.00;;
33184;SDS011;19550;42.872;25.494;2023-07-02T06:49:12;10.40;;;8.48;;
33184;SDS011;19550;42.872;25.494;2023-07-02T06:51:39;10.43;;;8.38;;
33184;SDS011;19550;42.872;25.494;2023-07-02T06:54:06;11.07;;;8.80;;
33184;SDS011;19550;42.872;25.494;2023-07-02T06:56:33;10.43;;;8.43;;
33184;SDS011;19550;42.872;25.494;2023-07-02T06:59:00;12.95;;;8.63;;
33184;SDS011;19550;42.872;25.494;2023-07-02T07:01:27;11.00;;;8.35;;
33184;SDS011;19550;42.872;25.494;2023-07-02T07:03:55;9.15;;;8.15;;
33184;SDS011;19550;42.872;25.494;2023-07-02T07:06:22;12.15;;;9.10;;
33184;SDS011;19550;42.872;25.494;2023-07-02T07:08:49;16.17;;;8.88;;
33184;SDS011;19550;42.872;25.494;2023-07-02T07:11:16;9.45;;;8.45;;
33184;SDS011;19550;42.872;25.494;2023-07-02T07:13:42;11.55;;;9.10;;
33184;SDS011;19550;42.872;25.494;2023-07-02T07:16:09;12.00;;;8.50;;
33184;SDS011;19550;42.872;25.494;2023-07-02T07:18:37;10.65;;;8.82;;
33184;SDS011;19550;42.872;25.494;2023-07-02T07:21:05;10.85;;;9.63;;
33184;SDS011;19550;42.872;25.494;2023-07-02T07:23:32;12.88;;;9.48;;
33184;SDS011;19550;42.872;25.494;2023-07-02T07:25:59;9.55;;;8.63;;
33184;SDS011;19550;42.872;25.494;2023-07-02T07:28:25;11.60;;;10.32;;
33184;SDS011;19550;42.872;25.494;2023-07-02T07:30:52;13.43;;;9.23;;
33184;SDS011;19550;42.872;25.494;2023-07-02T07:33:19;12.63;;;9.90;;
33184;SDS011;19550;42.872;25.494;2023-07-02T07:35:46;11.77;;;10.57;;
33184;SDS011;19550;42.872;25.494;2023-07-02T07:38:14;13.20;;;10.20;;
33184;SDS011;19550;42.872;25.494;2023-07-02T07:40:41;13.68;;;10.30;;
33184;SDS011;19550;42.872;25.494;2023-07-02T07:43:08;12.50;;;10.40;;
33184;SDS011;19550;42.872;25.494;2023-07-02T07:45:35;11.68;;;8.70;;
33184;SDS011;19550;42.872;25.494;2023-07-02T07:48:02;12.43;;;10.55;;
33184;SDS011;19550;42.872;25.494;2023-07-02T07:50:30;11.77;;;9.82;;
33184;SDS011;19550;42.872;25.494;2023-07-02T07:52:57;12.65;;;9.88;;
33184;SDS011;19550;42.872;25.494;2023-07-02T07:55:26;12.93;;;8.45;;
33184;SDS011;19550;42.872;25.494;2023-07-02T07:57:52;9.85;;;8.40;;
33184;SDS011;19550;42.872;25.494;2023-07-02T08:00:19;9.20;;;8.20;;
33184;SDS011;19550;42.872;25.494;2023-07-02T08:02:46;9.65;;;8.10;;
33184;SDS011;19550;42.872;25.494;2023-07-02T08:05:13;15.90;;;9.43;;
33184;SDS011;19550;42.872;25.494;2023-07-02T08:07:40;14.00;;;9.80;;
33184;SDS011;19550;42.872;25.494;2023-07-02T08:10:07;10.35;;;9.23;;
33184;SDS011;19550;42.872;25.494;2023-07-02T08:12:36;9.85;;;8.85;;
33184;SDS011;19550;42.872;25.494;2023-07-02T08:15:03;12.77;;;9.60;;
33184;SDS011;19550;42.872;25.494;2023-07-02T08:17:31;14.75;;;9.45;;
33184;SDS011;19550;42.872;25.494;2023-07-02T08:19:58;15.10;;;10.98;;
33184;SDS011;19550;42.872;25.494;2023-07-02T08:22:24;13.50;;;10.45;;
33184;SDS011;19550;42.872;25.494;2023-07-02T08:24:51;10.57;;;9.48;;
33184;SDS011;19550;42.872;25.494;2023-07-02T08:27:18;12.63;;;10.48;;
33184;SDS011;19550;42.872;25.494;2023-07-02T08:29:47;12.02;;;9.80;;
33184;SDS011;19550;42.872;25.494;2023-07-02T08:32:14;14.35;;;10.70;;
33184;SDS011;19550;42.872;25.494;2023-07-02T08:34:40;9.88;;;8.43;;
33184;SDS011;19550;42.872;25.494;2023-07-02T08:37:07;14.00;;;8.65;;
33184;SDS011;19550;42.872;25.494;2023-07-02T08:39:34;10.93;;;9.63;;
33184;SDS011;19550;42.872;25.494;2023-07-02T08:42:02;9.55;;;8.43;;
33184;SDS011;19550;42.872;25.494;2023-07-02T08:44:29;10.10;;;7.53;;
33184;SDS011;19550;42.872;25.494;2023-07-02T08:46:58;12.40;;;8.25;;
33184;SDS011;19550;42.872;25.494;2023-07-02T08:49:25;12.23;;;9.48;;
33184;SDS011;19550;42.872;25.494;2023-07-02T08:51:52;18.52;;;8.93;;
33184;SDS011;19550;42.872;25.494;2023-07-02T08:54:19;10.57;;;7.95;;
33184;SDS011;19550;42.872;25.494;2023-07-02T08:56:46;13.27;;;8.30;;
33184;SDS011;19550;42.872;25.494;2023-07-02T08:59:13;13.43;;;8.18;;
33184;SDS011;19550;42.872;25.494;2023-07-02T09:01:46;9.52;;;7.57;;
33184;SDS011;19550;42.872;25.494;2023-07-02T09:04:19;10.18;;;7.65;;
33184;SDS011;19550;42.872;25.494;2023-07-02T09:06:48;8.90;;;7.43;;
33184;SDS011;19550;42.872;25.494;2023-07-02T09:09:15;10.52;;;7.53;;
33184;SDS011;19550;42.872;25.494;2023-07-02T09:11:49;10.15;;;8.13;;
33184;SDS011;19550;42.872;25.494;2023-07-02T09:14:26;8.90;;;7.65;;
33184;SDS011;19550;42.872;25.494;2023-07-02T09:17:03;8.60;;;7.30;;
33184;SDS011;19550;42.872;25.494;2023-07-02T09:19:32;9.40;;;7.75;;
33184;SDS011;19550;42.872;25.494;2023-07-02T09:22:00;14.57;;;8.00;;
33184;SDS011;19550;42.872;25.494;2023-07-02T09:24:27;9.40;;;7.65;;
33184;SDS011;19550;42.872;25.494;2023-07-02T09:26:56;13.85;;;8.05;;
33184;SDS011;19550;42.872;25.494;2023-07-02T09:29:24;11.88;;;8.18;;
33184;SDS011;19550;42.872;25.494;2023-07-02T09:31:53;10.73;;;7.70;;
33184;SDS011;19550;42.872;25.494;2023-07-02T09:34:25;12.60;;;8.45;;
33184;SDS011;19550;42.872;25.494;2023-07-02T09:36:55;9.27;;;8.23;;
33184;SDS011;19550;42.872;25.494;2023-07-02T09:39:25;11.38;;;8.65;;
33184;SDS011;19550;42.872;25.494;2023-07-02T09:41:56;9.95;;;8.23;;
33184;SDS011;19550;42.872;25.494;2023-07-02T09:44:25;11.23;;;8.75;;
33184;SDS011;19550;42.872;25.494;2023-07-02T09:46:56;10.15;;;7.57;;
33184;SDS011;19550;42.872;25.494;2023-07-02T09:49:29;12.07;;;7.85;;
33184;SDS011;19550;42.872;25.494;2023-07-02T09:52:00;10.35;;;7.97;;
33184;SDS011;19550;42.872;25.494;2023-07-02T09:54:28;9.85;;;7.80;;
33184;SDS011;19550;42.872;25.494;2023-07-02T09:56:55;8.63;;;7.72;;
33184;SDS011;19550;42.872;25.494;2023-07-02T09:59:23;9.52;;;8.00;;
33184;SDS011;19550;42.872;25.494;2023-07-02T10:01:50;9.18;;;7.35;;
33184;SDS011;19550;42.872;25.494;2023-07-02T10:04:17;10.45;;;7.72;;
33184;SDS011;19550;42.872;25.494;2023-07-02T10:06:45;8.45;;;7.53;;
33184;SDS011;19550;42.872;25.494;2023-07-02T10:09:18;9.07;;;7.13;;
33184;SDS011;19550;42.872;25.494;2023-07-02T10:11:46;9.70;;;7.87;;
33184;SDS011;19550;42.872;25.494;2023-07-02T10:14:13;10.90;;;8.27;;
33184;SDS011;19550;42.872;25.494;2023-07-02T10:16:50;9.55;;;7.95;;
33184;SDS011;19550;42.872;25.494;2023-07-02T10:19:17;11.07;;;8.20;;
33184;SDS011;19550;42.872;25.494;2023-07-02T10:21:44;9.10;;;7.70;;
33184;SDS011;19550;42.872;25.494;2023-07-02T10:24:14;8.70;;;7.80;;
33184;SDS011;19550;42.872;25.494;2023-07-02T10:26:53;11.98;;;7.95;;
33184;SDS011;19550;42.872;25.494;2023-07-02T10:29:22;9.45;;;8.27;;
33184;SDS011;19550;42.872;25.494;2023-07-02T10:31:50;9.38;;;7.43;;
33184;SDS011;19550;42.872;25.494;2023-07-02T10:34:28;9.65;;;7.53;;
33184;SDS011;19550;42.872;25.494;2023-07-02T10:36:55;10.57;;;8.38;;
33184;SDS011;19550;42.872;25.494;2023-07-02T10:39:23;9.68;;;7.78;;
33184;SDS011;19550;42.872;25.494;2023-07-02T10:41:50;10.32;;;7.50;;
33184;SDS011;19550;42.872;25.494;2023-07-02T10:44:20;8.98;;;7.88;;
33184;SDS011;19550;42.872;25.494;2023-07-02T10:46:48;11.18;;;8.50;;
33184;SDS011;19550;42.872;25.494;2023-07-02T10:49:17;10.45;;;8.25;;
33184;SDS011;19550;42.872;25.494;2023-07-02T10:51:44;10.70;;;7.57;;
33184;SDS011;19550;42.872;25.494;2023-07-02T10:54:11;8.77;;;7.75;;
33184;SDS011;19550;42.872;25.494;2023-07-02T10:56:42;9.43;;;8.18;;
33184;SDS011;19550;42.872;25.494;2023-07-02T10:59:24;10.60;;;7.97;;
33184;SDS011;19550;42.872;25.494;2023-07-02T11:01:51;11.95;;;7.82;;
33184;SDS011;19550;42.872;25.494;2023-07-02T11:04:19;9.32;;;7.88;;
33184;SDS011;19550;42.872;25.494;2023-07-02T11:06:47;13.05;;;9.40;;
33184;SDS011;19550;42.872;25.494;2023-07-02T11:09:17;10.20;;;7.90;;
33184;SDS011;19550;42.872;25.494;2023-07-02T11:11:52;8.65;;;7.43;;
33184;SDS011;19550;42.872;25.494;2023-07-02T11:14:28;9.15;;;7.78;;
33184;SDS011;19550;42.872;25.494;2023-07-02T11:16:56;13.07;;;11.10;;
33184;SDS011;19550;42.872;25.494;2023-07-02T11:19:24;11.68;;;8.63;;
33184;SDS011;19550;42.872;25.494;2023-07-02T11:21:52;10.13;;;7.95;;
33184;SDS011;19550;42.872;25.494;2023-07-02T11:24:27;9.82;;;8.00;;
33184;SDS011;19550;42.872;25.494;2023-07-02T11:26:55;11.13;;;8.10;;
33184;SDS011;19550;42.872;25.494;2023-07-02T11:29:22;11.52;;;7.50;;
33184;SDS011;19550;42.872;25.494;2023-07-02T11:31:50;10.65;;;7.80;;
33184;SDS011;19550;42.872;25.494;2023-07-02T11:34:17;9.23;;;7.15;;
33184;SDS011;19550;42.872;25.494;2023-07-02T11:36:45;9.77;;;7.55;;
33184;SDS011;19550;42.872;25.494;2023-07-02T11:39:12;16.52;;;7.82;;
33184;SDS011;19550;42.872;25.494;2023-07-02T11:41:41;7.82;;;6.95;;
33184;SDS011;19550;42.872;25.494;2023-07-02T11:44:11;14.38;;;8.15;;
33184;SDS011;19550;42.872;25.494;2023-07-02T11:46:38;8.10;;;6.85;;
33184;SDS011;19550;42.872;25.494;2023-07-02T11:49:06;10.65;;;7.38;;
33184;SDS011;19550;42.872;25.494;2023-07-02T11:51:34;11.48;;;8.10;;
33184;SDS011;19550;42.872;25.494;2023-07-02T11:54:01;11.05;;;7.75;;
33184;SDS011;19550;42.872;25.494;2023-07-02T11:56:28;9.05;;;7.85;;
33184;SDS011;19550;42.872;25.494;2023-07-02T11:58:55;9.40;;;7.90;;
33184;SDS011;19550;42.872;25.494;2023-07-02T12:01:23;9.65;;;8.23;;
33184;SDS011;19550;42.872;25.494;2023-07-02T12:03:49;9.68;;;8.48;;
33184;SDS011;19550;42.872;25.494;2023-07-02T12:06:18;12.38;;;7.82;;
33184;SDS011;19550;42.872;25.494;2023-07-02T12:08:45;10.48;;;7.95;;
33184;SDS011;19550;42.872;25.494;2023-07-02T12:11:11;13.20;;;8.93;;
33184;SDS011;19550;42.872;25.494;2023-07-02T12:13:38;12.90;;;8.70;;
33184;SDS011;19550;42.872;25.494;2023-07-02T12:16:05;12.10;;;8.15;;
33184;SDS011;19550;42.872;25.494;2023-07-02T12:18:32;15.80;;;9.90;;
33184;SDS011;19550;42.872;25.494;2023-07-02T12:20:59;14.55;;;9.45;;
33184;SDS011;19550;42.872;25.494;2023-07-02T12:23:27;17.10;;;9.43;;
33184;SDS011;19550;42.872;25.494;2023-07-02T12:25:54;13.48;;;9.93;;
33184;SDS011;19550;42.872;25.494;2023-07-02T12:28:21;15.98;;;9.43;;
33184;SDS011;19550;42.872;25.494;2023-07-02T12:30:48;13.88;;;9.95;;
33184;SDS011;19550;42.872;25.494;2023-07-02T12:33:15;15.38;;;10.45;;
33184;SDS011;19550;42.872;25.494;2023-07-02T12:35:42;12.73;;;9.27;;
33184;SDS011;19550;42.872;25.494;2023-07-02T12:38:09;13.55;;;9.70;;
33184;SDS011;19550;42.872;25.494;2023-07-02T12:40:37;14.18;;;9.85;;
33184;SDS011;19550;42.872;25.494;2023-07-02T12:43:04;13.60;;;9.65;;
33184;SDS011;19550;42.872;25.494;2023-07-02T12:45:31;12.50;;;8.77;;
33184;SDS011;19550;42.872;25.494;2023-07-02T12:47:58;11.98;;;8.90;;
33184;SDS011;19550;42.872;25.494;2023-07-02T12:50:25;12.88;;;9.07;;
33184;SDS011;19550;42.872;25.494;2023-07-02T12:52:52;13.60;;;9.63;;
33184;SDS011;19550;42.872;25.494;2023-07-02T12:55:19;12.20;;;9.00;;
33184;SDS011;19550;42.872;25.494;2023-07-02T12:57:47;11.57;;;8.38;;
33184;SDS011;19550;42.872;25.494;2023-07-02T13:00:14;12.23;;;9.65;;
33184;SDS011;19550;42.872;25.494;2023-07-02T13:02:41;10.93;;;8.85;;
33184;SDS011;19550;42.872;25.494;2023-07-02T13:05:08;13.15;;;9.25;;
33184;SDS011;19550;42.872;25.494;2023-07-02T13:07:35;15.30;;;10.35;;
33184;SDS011;19550;42.872;25.494;2023-07-02T13:10:02;14.13;;;9.85;;
33184;SDS011;19550;42.872;25.494;2023-07-02T13:12:29;16.45;;;10.98;;
33184;SDS011;19550;42.872;25.494;2023-07-02T13:14:57;12.98;;;10.30;;
33184;SDS011;19550;42.872;25.494;2023-07-02T13:17:24;13.63;;;9.90;;
33184;SDS011;19550;42.872;25.494;2023-07-02T13:19:51;14.35;;;10.15;;
33184;SDS011;19550;42.872;25.494;2023-07-02T13:22:18;12.52;;;9.68;;
33184;SDS011;19550;42.872;25.494;2023-07-02T13:24:45;14.18;;;9.27;;
33184;SDS011;19550;42.872;25.494;2023-07-02T13:27:12;13.40;;;9.68;;
33184;SDS011;19550;42.872;25.494;2023-07-02T13:29:41;12.07;;;8.48;;
33184;SDS011;19550;42.872;25.494;2023-07-02T13:32:10;10.15;;;7.13;;
33184;SDS011;19550;42.872;25.494;2023-07-02T13:34:37;13.00;;;9.00;;
33184;SDS011;19550;42.872;25.494;2023-07-02T13:37:04;11.00;;;8.00;;
33184;SDS011;19550;42.872;25.494;2023-07-02T13:39:31;10.50;;;7.78;;
33184;SDS011;19550;42.872;25.494;2023-07-02T13:41:58;8.65;;;7.70;;
33184;SDS011;19550;42.872;25.494;2023-07-02T13:44:24;11.32;;;8.02;;
33184;SDS011;19550;42.872;25.494;2023-07-02T13:46:51;10.52;;;8.60;;
33184;SDS011;19550;42.872;25.494;2023-07-02T13:49:20;12.98;;;8.02;;
33184;SDS011;19550;42.872;25.494;2023-07-02T13:51:47;13.50;;;8.30;;
33184;SDS011;19550;42.872;25.494;2023-07-02T13:54:16;12.90;;;8.15;;
33184;SDS011;19550;42.872;25.494;2023-07-02T13:56:44;11.73;;;7.47;;
33184;SDS011;19550;42.872;25.494;2023-07-02T13:59:12;12.65;;;8.00;;
33184;SDS011;19550;42.872;25.494;2023-07-02T14:01:40;13.07;;;9.20;;
33184;SDS011;19550;42.872;25.494;2023-07-02T14:04:07;11.52;;;8.38;;
33184;SDS011;19550;42.872;25.494;2023-07-02T14:06:33;10.00;;;8.70;;
33184;SDS011;19550;42.872;25.494;2023-07-02T14:09:00;9.77;;;7.53;;
33184;SDS011;19550;42.872;25.494;2023-07-02T14:11:27;10.40;;;7.35;;
33184;SDS011;19550;42.872;25.494;2023-07-02T14:13:55;9.57;;;7.72;;
33184;SDS011;19550;42.872;25.494;2023-07-02T14:16:23;10.77;;;7.88;;
33184;SDS011;19550;42.872;25.494;2023-07-02T14:18:50;9.32;;;7.65;;
33184;SDS011;19550;42.872;25.494;2023-07-02T14:21:17;11.18;;;7.30;;